Portada
METAR-TAF:

METAR-TAF

Aeropuertos :

Aeropuerto Internacional de Funafuti

Funafuti, Tuvalu

latitud: 08-31S, longitud: 179-13E, altitud: 1 m

Observación

El informe se hizo hace 28 minutos, a las 04:00 UTC
Viento 7 kt del este
Temperatura 32°C
Humedad 79%
Presión 1007 hPa
Visibilidad 10 km o más
Escasas nubes a una altura de 1800 ft, Cumulus congestus.
Cielo nuboso a una altura de 2000 ft

METAR: NGFU 020400Z 08007KT 9999 FEW018TCU BKN020 32/28 Q1007

Hora: 16:28 (04:28 UTC)

Pronóstico

El informe se hizo hace 5 horas y 22 minutos, a las 23:06 UTC
Pronóstico válido del 02 a las 00 UTC al 02 a las 24 UTC
Viento 6 kt del este
Visibilidad 10 km o más
Escasas nubes a una altura de 2000 ft
Probabilidad 40% :
Temporalmente
del 02 a las 21 UTC al 02 a las 24 UTC
Visibilidad: 5000 m
Escasas nubes a una altura de 1800 ft, Cumulonimbus.
tormenta, lluvia,

TAF: NGFU 012306Z 0200/0224 09006KT 9999 FEW020 PROB40 TEMPO 0221/0224 5000 TSRA FEW018CB

Observaciones y pronósticos meteorológicos de más de 4000 aeropuertos (mensajes METAR y TAF).

Los puntos amarillos y rojos representan las estaciones disponibles.

Ponga el ratón en el punto deseado para ver el nombre de la estación.

Haga clic para ver las observaciones y los pronósticos meteorológicos.

Para cambiar el mapa : haga clic en los botones verdes con una cruz de color negro para hacer un zoom, en el botón verde con un guión para alejar o en las flechas verdes para mapas adyacentes.


METAR-TAF: